createdAt,value
2023-04-08T00:01:50.234Z,6.3
2023-04-08T00:11:50.143Z,6.2
2023-04-08T00:21:50.140Z,6.2
2023-04-08T00:31:50.147Z,6
2023-04-08T00:41:50.109Z,5.9
2023-04-08T00:51:50.082Z,5.8
2023-04-08T01:01:50.636Z,5.6
2023-04-08T01:11:50.575Z,5.5
2023-04-08T01:21:50.070Z,5.3
2023-04-08T01:31:50.084Z,5.3
2023-04-08T01:41:50.503Z,5.1
2023-04-08T01:51:50.065Z,4.7
2023-04-08T02:01:50.225Z,4.7
2023-04-08T02:11:50.077Z,4.5
2023-04-08T02:21:50.438Z,4.5
2023-04-08T02:31:50.108Z,4.4
2023-04-08T02:41:50.095Z,4.3
2023-04-08T02:51:50.008Z,4.1
2023-04-08T03:01:50.110Z,4
2023-04-08T03:11:50.509Z,3.8
2023-04-08T03:21:49.997Z,3.7
2023-04-08T03:31:50.083Z,3.5
2023-04-08T03:41:50.052Z,3.3
2023-04-08T03:51:50.005Z,3.2
2023-04-08T04:01:50.022Z,3.2
2023-04-08T04:11:50.375Z,3.2
2023-04-08T04:21:49.947Z,3.1
2023-04-08T04:31:49.977Z,3.1
2023-04-08T04:41:49.974Z,3.1
2023-04-08T04:51:49.942Z,3.1
2023-04-08T05:01:50.495Z,3.1
2023-04-08T05:11:49.978Z,3
2023-04-08T05:21:49.924Z,3.1
2023-04-08T05:31:49.970Z,3.1
2023-04-08T05:41:49.972Z,3
2023-04-08T05:51:49.879Z,3.2
2023-04-08T06:01:49.978Z,3.5
2023-04-08T06:11:49.895Z,4
2023-04-08T06:21:49.872Z,4.8
2023-04-08T06:31:49.927Z,5.6
2023-04-08T06:41:50.319Z,6.4
2023-04-08T06:51:49.859Z,7.4
2023-04-08T07:01:50.000Z,8.9
2023-04-08T07:11:49.848Z,10
2023-04-08T07:21:49.830Z,12.4
2023-04-08T07:31:49.823Z,13.1
2023-04-08T07:41:49.797Z,13.4
2023-04-08T07:51:50.147Z,13.4
2023-04-08T08:01:49.815Z,13.4
2023-04-08T08:11:49.779Z,13.5
2023-04-08T08:21:49.726Z,13.7
2023-04-08T08:31:49.804Z,14.3
2023-04-08T08:41:49.722Z,14.4
2023-04-08T08:51:49.656Z,17
2023-04-08T09:01:49.732Z,17.4
2023-04-08T09:11:49.680Z,17.7
2023-04-08T09:21:49.605Z,17.7
2023-04-08T09:31:49.651Z,17.5
2023-04-08T09:41:50.063Z,17.7
2023-04-08T09:51:49.559Z,19.7
2023-04-08T10:01:49.675Z,23.3
2023-04-08T10:11:49.603Z,21.9
2023-04-08T10:21:49.518Z,21.8
2023-04-08T10:31:49.577Z,20.2
2023-04-08T10:51:49.502Z,20.5
2023-04-08T11:01:49.554Z,20.4
2023-04-08T11:11:49.479Z,20.8
2023-04-08T11:21:49.408Z,21
2023-04-08T11:31:49.807Z,22
2023-04-08T11:41:49.531Z,23
2023-04-08T11:51:49.362Z,23.2
2023-04-08T12:01:49.382Z,21.4
2023-04-08T12:11:49.314Z,21.2
2023-04-08T12:21:49.315Z,19.5
2023-04-08T12:31:49.346Z,19.2
2023-04-08T12:41:49.312Z,18.4
2023-04-08T12:51:49.270Z,17.8
2023-04-08T13:01:49.284Z,18.9
2023-04-08T13:11:49.687Z,19.3
2023-04-08T13:21:49.205Z,18.3
2023-04-08T13:31:49.244Z,17.4
2023-04-08T13:41:49.195Z,17.1
2023-04-08T13:51:49.166Z,16.8
2023-04-08T14:01:49.280Z,16.4
2023-04-08T14:11:49.115Z,16.3
2023-04-08T14:21:49.115Z,17
2023-04-08T14:31:49.126Z,18.2
2023-04-08T14:41:49.126Z,19.9
2023-04-08T14:51:49.944Z,21.1
2023-04-08T15:01:49.157Z,20.6
2023-04-08T15:11:49.099Z,20.7
2023-04-08T15:21:48.991Z,20.1
2023-04-08T15:31:49.025Z,19.3
2023-04-08T15:41:49.021Z,18.3
2023-04-08T15:51:48.952Z,18
2023-04-08T16:01:49.033Z,17.7
2023-04-08T16:11:48.973Z,18
2023-04-08T16:21:48.890Z,18.1
2023-04-08T16:31:49.507Z,17.8
2023-04-08T16:41:48.883Z,17.1
2023-04-08T16:51:48.902Z,16.8
2023-04-08T17:01:49.412Z,16.7
2023-04-08T17:11:48.886Z,16.4
2023-04-08T17:21:48.833Z,16.3
2023-04-08T17:31:48.837Z,15.9
2023-04-08T17:41:48.822Z,15.4
2023-04-08T17:51:48.790Z,15
2023-04-08T18:01:49.254Z,14.7
2023-04-08T18:11:48.779Z,14.6
2023-04-08T18:21:48.722Z,14.4
2023-04-08T18:31:48.732Z,14.4
2023-04-08T18:41:48.796Z,14.2
2023-04-08T18:52:01.382Z,14.2
2023-04-08T19:01:48.851Z,14.1
2023-04-08T19:11:48.640Z,13.9
2023-04-08T19:21:48.610Z,13.8
2023-04-08T19:31:48.619Z,13.7
2023-04-08T19:41:48.646Z,13.6
2023-04-08T19:51:48.547Z,13.4
2023-04-08T20:01:48.657Z,13.3
2023-04-08T20:11:49.038Z,13.3
2023-04-08T20:21:48.537Z,13
2023-04-08T20:31:48.638Z,12.8
2023-04-08T20:41:48.521Z,12.6
2023-04-08T20:51:48.500Z,12.6
2023-04-08T21:01:48.568Z,12.6
2023-04-08T21:11:48.506Z,12.7
2023-04-08T21:21:48.449Z,12.7
2023-04-08T21:31:49.041Z,12.5
2023-04-08T21:41:48.451Z,12.4
2023-04-08T21:51:48.389Z,12.3
2023-04-08T22:01:48.482Z,12.3
2023-04-08T22:11:48.456Z,12.2
2023-04-08T22:21:48.374Z,12
2023-04-08T22:31:48.453Z,11.6
2023-04-08T22:41:48.335Z,11.4
2023-04-08T22:51:48.345Z,11.3
2023-04-08T23:01:48.440Z,11.3
2023-04-08T23:11:48.372Z,11.1
2023-04-08T23:21:48.290Z,10.7
2023-04-08T23:31:48.316Z,10.4
2023-04-08T23:41:48.303Z,10.1
2023-04-08T23:51:48.249Z,9.9
